Time;durP1;ratioP1;P1;durP2;ratioP2;P2;SDS_P1;SDS_P2;PMS_P1;PMS_P2;Temp;Humidity;BMP_temperature;BMP_pressure;BME280_temperature;BME280_humidity;BME280_pressure;Samples;Min_cycle;Max_cycle;Signal;HPM_P1;HPM_P2
2023/01/24 00:02:20;;;;;;;10.52;5.63;;;;;;;;;;4999418;28;20018;-81
2023/01/24 00:05:06;;;;;;;11.25;5.50;;;;;;;;;;5002660;28;20031;-80
2023/01/24 00:07:51;;;;;;;12.25;6.47;;;;;;;;;;4996410;28;20455;-79
2023/01/24 00:10:37;;;;;;;10.50;5.53;;;;;;;;;;4994755;28;20118;-80
2023/01/24 00:13:22;;;;;;;11.80;6.20;;;;;;;;;;4982130;28;20348;-79
2023/01/24 00:16:11;;;;;;;10.50;5.93;;;;;;;;;;4981773;28;20026;-80
2023/01/24 00:18:57;;;;;;;11.48;6.07;;;;;;;;;;4995024;28;20077;-78
2023/01/24 00:21:42;;;;;;;9.75;6.05;;;;;;;;;;4996011;28;20014;-78
2023/01/24 00:24:28;;;;;;;12.90;6.70;;;;;;;;;;4994625;28;20082;-78
2023/01/24 00:27:14;;;;;;;11.25;6.10;;;;;;;;;;4996279;28;20497;-79
2023/01/24 00:30:00;;;;;;;9.20;5.57;;;;;;;;;;4994122;28;20156;-79
2023/01/24 00:32:46;;;;;;;10.82;5.07;;;;;;;;;;4998052;28;20018;-79
2023/01/24 00:35:31;;;;;;;8.88;4.82;;;;;;;;;;4979075;28;20050;-79
2023/01/24 00:38:18;;;;;;;9.43;5.22;;;;;;;;;;4979357;28;20031;-80
2023/01/24 00:41:03;;;;;;;7.30;4.53;;;;;;;;;;4979641;28;20419;-79
2023/01/24 00:43:49;;;;;;;7.93;4.68;;;;;;;;;;4979523;28;20019;-79
2023/01/24 00:46:34;;;;;;;8.63;4.60;;;;;;;;;;4978283;28;20059;-78
2023/01/24 00:49:20;;;;;;;6.60;4.00;;;;;;;;;;4978432;28;20092;-80
2023/01/24 00:52:06;;;;;;;7.90;4.28;;;;;;;;;;4979797;28;20428;-80
2023/01/24 00:54:51;;;;;;;7.60;3.88;;;;;;;;;;4979803;28;20466;-79
2023/01/24 00:57:37;;;;;;;6.40;3.67;;;;;;;;;;4978680;28;20447;-80
2023/01/24 01:00:23;;;;;;;8.20;3.88;;;;;;;;;;4978467;28;20109;-80
2023/01/24 01:03:16;;;;;;;7.85;4.22;;;;;;;;;;4979485;28;20027;-79
2023/01/24 01:06:05;;;;;;;5.93;4.20;;;;;;;;;;4980124;28;20019;-80
2023/01/24 01:08:51;;;;;;;8.05;4.63;;;;;;;;;;4979887;28;20109;-80
2023/01/24 01:11:41;;;;;;;6.22;3.95;;;;;;;;;;4979735;28;20050;-80
2023/01/24 01:14:27;;;;;;;9.60;4.97;;;;;;;;;;4979957;28;20023;-80
2023/01/24 01:17:12;;;;;;;11.35;5.15;;;;;;;;;;4978717;28;20049;-80
2023/01/24 01:19:58;;;;;;;8.93;4.95;;;;;;;;;;4979119;28;20098;-80
2023/01/24 01:22:44;;;;;;;9.23;4.80;;;;;;;;;;4979420;28;20027;-79
2023/01/24 01:25:29;;;;;;;9.63;4.93;;;;;;;;;;4978210;28;20023;-79
2023/01/24 01:28:15;;;;;;;8.15;5.07;;;;;;;;;;4979841;28;20026;-80
2023/01/24 01:31:01;;;;;;;8.43;5.13;;;;;;;;;;4978118;28;20097;-79
2023/01/24 01:33:46;;;;;;;11.88;5.95;;;;;;;;;;4979229;28;20105;-80
2023/01/24 01:36:32;;;;;;;11.45;5.97;;;;;;;;;;4995431;28;20050;-79
2023/01/24 01:39:17;;;;;;;11.20;5.97;;;;;;;;;;4984587;28;20041;-79
2023/01/24 01:42:03;;;;;;;12.48;6.07;;;;;;;;;;4985533;28;20015;-79
2023/01/24 01:44:49;;;;;;;12.35;6.10;;;;;;;;;;4985307;28;20073;-79
2023/01/24 01:47:35;;;;;;;10.00;5.57;;;;;;;;;;4985279;28;20034;-80
2023/01/24 01:50:31;;;;;;;12.35;6.20;;;;;;;;;;4998163;28;20364;-80
2023/01/24 01:53:17;;;;;;;14.80;6.25;;;;;;;;;;4998078;28;20030;-79
2023/01/24 01:56:06;;;;;;;11.65;6.10;;;;;;;;;;5000286;28;20432;-80
2023/01/24 01:58:52;;;;;;;12.90;5.88;;;;;;;;;;4987738;28;20355;-81
2023/01/24 02:01:40;;;;;;;11.65;6.38;;;;;;;;;;4988229;28;20420;-79
2023/01/24 02:04:29;;;;;;;12.88;6.55;;;;;;;;;;4986094;28;20025;-80
2023/01/24 02:07:20;;;;;;;12.10;6.70;;;;;;;;;;4998089;28;20124;-80
2023/01/24 02:10:06;;;;;;;13.93;6.72;;;;;;;;;;5001175;28;20359;-79
2023/01/24 02:12:53;;;;;;;15.32;7.28;;;;;;;;;;5005326;28;20053;-81
2023/01/24 02:18:43;;;;;;;16.90;8.07;;;;;;;;;;5004335;28;20170;-81
2023/01/24 02:21:29;;;;;;;17.52;8.88;;;;;;;;;;4988076;28;20046;-80
2023/01/24 02:24:20;;;;;;;16.27;8.45;;;;;;;;;;4988764;28;20054;-81
2023/01/24 02:27:05;;;;;;;17.17;9.02;;;;;;;;;;4999907;28;20033;-79
2023/01/24 02:29:51;;;;;;;18.23;9.13;;;;;;;;;;4986236;28;20121;-81
2023/01/24 02:32:37;;;;;;;18.15;8.52;;;;;;;;;;4990071;28;20069;-78
2023/01/24 02:35:25;;;;;;;17.35;8.52;;;;;;;;;;5013328;28;20077;-81
2023/01/24 02:38:31;;;;;;;17.10;8.45;;;;;;;;;;5011407;28;20026;-80
2023/01/24 02:41:19;;;;;;;15.15;8.45;;;;;;;;;;4988569;28;20030;-80
2023/01/24 02:44:08;;;;;;;17.05;8.63;;;;;;;;;;4985074;28;20018;-79
2023/01/24 02:46:54;;;;;;;16.77;9.02;;;;;;;;;;4996812;28;20048;-80
2023/01/24 02:49:40;;;;;;;18.42;8.48;;;;;;;;;;4983272;28;20029;-80
2023/01/24 02:55:30;;;;;;;17.55;8.90;;;;;;;;;;4998617;28;20113;-80
2023/01/24 02:58:15;;;;;;;16.67;9.00;;;;;;;;;;5001676;28;20033;-78
2023/01/24 03:01:04;;;;;;;17.52;8.30;;;;;;;;;;5010703;28;20038;-80
2023/01/24 03:03:50;;;;;;;16.40;8.85;;;;;;;;;;5007860;28;20018;-78
2023/01/24 03:06:36;;;;;;;17.25;8.68;;;;;;;;;;5008972;28;20050;-79
2023/01/24 03:09:33;;;;;;;18.73;9.48;;;;;;;;;;4984130;28;20080;-80
2023/01/24 03:36:52;;;;;;;13.63;7.82;;;;;;;;;;4999075;28;20042;-80
2023/01/24 03:39:53;;;;;;;14.48;7.60;;;;;;;;;;4984363;28;20029;-80
2023/01/24 03:42:47;;;;;;;15.65;8.18;;;;;;;;;;4984436;28;20026;-80
2023/01/24 03:45:34;;;;;;;14.98;8.15;;;;;;;;;;4997181;28;20014;-79
2023/01/24 03:48:26;;;;;;;13.60;8.02;;;;;;;;;;4996603;28;20356;-80
2023/01/24 03:54:15;;;;;;;19.73;8.52;;;;;;;;;;4998131;28;20025;-80
2023/01/24 03:57:02;;;;;;;16.08;9.10;;;;;;;;;;4984017;28;20054;-80
2023/01/24 03:59:47;;;;;;;19.23;9.18;;;;;;;;;;4998941;28;20391;-80
2023/01/24 04:02:33;;;;;;;15.50;8.70;;;;;;;;;;4999609;28;20033;-80
2023/01/24 04:05:20;;;;;;;17.33;9.18;;;;;;;;;;4985016;28;20026;-80
2023/01/24 04:08:05;;;;;;;13.77;8.32;;;;;;;;;;4998111;28;20071;-82
2023/01/24 04:10:51;;;;;;;16.30;8.93;;;;;;;;;;4984524;28;20395;-79
2023/01/24 04:13:36;;;;;;;16.13;9.25;;;;;;;;;;4997029;28;20041;-80
2023/01/24 04:16:22;;;;;;;15.52;9.00;;;;;;;;;;4997382;28;20026;-80
2023/01/24 04:19:08;;;;;;;18.15;9.35;;;;;;;;;;4996620;28;20041;-79
2023/01/24 04:21:57;;;;;;;17.42;9.38;;;;;;;;;;4996676;28;20041;-79
2023/01/24 04:24:43;;;;;;;19.83;8.93;;;;;;;;;;4997929;28;20049;-79
2023/01/24 04:27:29;;;;;;;17.75;9.05;;;;;;;;;;4984108;28;20479;-79
2023/01/24 04:30:15;;;;;;;15.02;8.27;;;;;;;;;;4983174;28;20447;-79
2023/01/24 04:33:01;;;;;;;15.32;8.80;;;;;;;;;;4984339;28;20027;-80
2023/01/24 04:35:47;;;;;;;15.35;8.80;;;;;;;;;;4997190;28;20054;-79
2023/01/24 04:38:32;;;;;;;17.10;9.30;;;;;;;;;;4997220;28;20027;-79
2023/01/24 04:41:18;;;;;;;16.30;8.73;;;;;;;;;;4983528;28;20435;-80
2023/01/24 04:44:03;;;;;;;17.15;9.00;;;;;;;;;;4997868;28;20454;-78
2023/01/24 04:46:49;;;;;;;17.13;9.00;;;;;;;;;;4997534;28;20038;-78
2023/01/24 04:49:35;;;;;;;18.77;8.90;;;;;;;;;;4996534;28;20172;-80
2023/01/24 04:52:20;;;;;;;17.08;8.70;;;;;;;;;;4999103;28;20034;-80
2023/01/24 04:55:06;;;;;;;18.35;9.10;;;;;;;;;;4984767;28;20022;-79
2023/01/24 04:57:52;;;;;;;15.13;8.70;;;;;;;;;;4995575;28;20368;-79
2023/01/24 05:00:37;;;;;;;14.93;8.30;;;;;;;;;;4985491;28;20015;-80
2023/01/24 05:03:23;;;;;;;17.17;8.80;;;;;;;;;;4986755;28;20379;-79
2023/01/24 05:06:09;;;;;;;17.20;9.05;;;;;;;;;;4988334;28;20023;-80
2023/01/24 05:08:55;;;;;;;16.45;9.40;;;;;;;;;;4991092;28;20090;-80
2023/01/24 05:11:40;;;;;;;17.85;9.07;;;;;;;;;;4988804;28;20121;-79
2023/01/24 05:14:26;;;;;;;17.08;9.07;;;;;;;;;;4985926;28;20018;-80
2023/01/24 05:17:11;;;;;;;21.85;9.35;;;;;;;;;;4982574;28;20037;-77
2023/01/24 05:19:57;;;;;;;17.13;9.13;;;;;;;;;;4998957;28;20443;-80
2023/01/24 05:22:46;;;;;;;17.92;9.10;;;;;;;;;;4987697;28;20442;-81
2023/01/24 05:25:32;;;;;;;18.08;9.05;;;;;;;;;;4987824;28;20025;-81
2023/01/24 05:28:17;;;;;;;18.48;8.70;;;;;;;;;;4986776;28;20088;-77
2023/01/24 05:31:07;;;;;;;21.35;10.32;;;;;;;;;;4986363;28;20030;-80
2023/01/24 05:33:56;;;;;;;21.58;9.18;;;;;;;;;;4999111;28;20033;-80
2023/01/24 05:36:41;;;;;;;21.70;9.95;;;;;;;;;;4979502;28;20464;-81
2023/01/24 05:39:27;;;;;;;22.73;10.57;;;;;;;;;;4978902;28;20027;-79
2023/01/24 05:42:13;;;;;;;21.63;9.90;;;;;;;;;;4978610;28;20109;-81
2023/01/24 05:44:58;;;;;;;21.55;10.60;;;;;;;;;;4979416;28;20018;-81
2023/01/24 05:47:44;;;;;;;21.48;11.10;;;;;;;;;;4979061;28;20469;-80
2023/01/24 05:50:29;;;;;;;20.20;9.77;;;;;;;;;;4980010;28;20060;-80
2023/01/24 05:53:15;;;;;;;28.35;10.25;;;;;;;;;;4993605;28;20025;-81
2023/01/24 05:56:03;;;;;;;22.85;11.40;;;;;;;;;;4980325;28;20019;-80
2023/01/24 05:58:49;;;;;;;24.70;13.43;;;;;;;;;;4981126;28;20110;-81
2023/01/24 06:01:34;;;;;;;22.85;11.13;;;;;;;;;;4983583;28;20029;-79
2023/01/24 06:04:20;;;;;;;23.92;10.57;;;;;;;;;;4997965;28;20015;-79
2023/01/24 06:07:06;;;;;;;19.38;10.20;;;;;;;;;;4998393;28;20027;-80
2023/01/24 06:09:51;;;;;;;26.80;10.85;;;;;;;;;;5000032;28;20030;-80
2023/01/24 06:12:37;;;;;;;22.00;10.75;;;;;;;;;;5000383;28;20030;-79
2023/01/24 06:15:22;;;;;;;21.52;10.32;;;;;;;;;;4999020;28;20041;-79
2023/01/24 06:18:11;;;;;;;23.27;11.10;;;;;;;;;;4998961;28;20058;-79
2023/01/24 06:20:56;;;;;;;23.40;10.75;;;;;;;;;;5000130;28;20014;-80
2023/01/24 06:23:42;;;;;;;21.65;10.90;;;;;;;;;;5000118;28;20030;-80
2023/01/24 06:26:28;;;;;;;21.17;10.38;;;;;;;;;;4999760;28;20011;-79
2023/01/24 06:29:14;;;;;;;20.63;10.52;;;;;;;;;;4998273;28;20034;-79
2023/01/24 06:32:05;;;;;;;24.02;11.32;;;;;;;;;;4999579;28;20014;-80
2023/01/24 06:35:09;;;;;;;25.48;11.05;;;;;;;;;;5000324;28;20034;-78
2023/01/24 06:37:57;;;;;;;22.90;10.73;;;;;;;;;;4997300;28;20072;-81
2023/01/24 06:40:43;;;;;;;21.20;11.32;;;;;;;;;;5002023;28;20019;-81
2023/01/24 06:43:29;;;;;;;19.40;10.00;;;;;;;;;;5001116;28;20018;-81
2023/01/24 06:46:14;;;;;;;20.42;10.45;;;;;;;;;;5000762;28;20470;-81
2023/01/24 06:49:00;;;;;;;21.17;10.52;;;;;;;;;;4999295;28;20101;-81
2023/01/24 06:51:50;;;;;;;23.38;11.27;;;;;;;;;;4998435;28;20026;-80
2023/01/24 06:54:35;;;;;;;24.60;13.00;;;;;;;;;;4999024;28;20100;-81
2023/01/24 06:57:21;;;;;;;22.23;11.65;;;;;;;;;;4985378;28;20105;-81
2023/01/24 07:00:07;;;;;;;24.02;12.20;;;;;;;;;;5005104;28;20336;-79
2023/01/24 07:03:06;;;;;;;25.20;12.77;;;;;;;;;;5016093;28;20066;-78
2023/01/24 07:05:51;;;;;;;24.08;12.13;;;;;;;;;;5016586;28;20028;-80
2023/01/24 07:08:37;;;;;;;30.63;14.35;;;;;;;;;;5018308;28;20002;-80
2023/01/24 07:11:23;;;;;;;27.10;13.65;;;;;;;;;;5018615;28;20041;-79
2023/01/24 07:14:10;;;;;;;22.92;12.20;;;;;;;;;;5017026;28;20097;-77
2023/01/24 07:16:56;;;;;;;29.25;13.60;;;;;;;;;;5004130;28;20007;-78
2023/01/24 07:19:41;;;;;;;23.35;10.65;;;;;;;;;;5003717;28;20069;-80
2023/01/24 07:22:27;;;;;;;23.38;11.35;;;;;;;;;;5004539;28;20150;-79
2023/01/24 07:25:21;;;;;;;25.15;10.90;;;;;;;;;;5016705;28;20050;-80
2023/01/24 07:28:09;;;;;;;21.95;10.55;;;;;;;;;;5004978;28;20018;-80
2023/01/24 07:30:54;;;;;;;24.90;11.13;;;;;;;;;;5015394;28;20096;-79
2023/01/24 07:33:40;;;;;;;22.95;11.80;;;;;;;;;;5004371;28;20022;-81
2023/01/24 07:36:29;;;;;;;22.85;11.27;;;;;;;;;;5011748;28;20467;-80
2023/01/24 07:39:15;;;;;;;23.85;11.10;;;;;;;;;;4995710;28;20033;-81
2023/01/24 07:42:00;;;;;;;21.25;11.07;;;;;;;;;;4992929;28;20027;-80
2023/01/24 07:44:46;;;;;;;26.77;11.38;;;;;;;;;;4993374;28;20025;-80
2023/01/24 07:47:32;;;;;;;22.90;10.80;;;;;;;;;;5007406;28;20032;-79
2023/01/24 07:50:17;;;;;;;25.95;10.73;;;;;;;;;;5012330;28;20034;-81
2023/01/24 07:53:03;;;;;;;27.80;11.98;;;;;;;;;;5013507;28;20037;-81
2023/01/24 07:55:48;;;;;;;26.98;12.40;;;;;;;;;;5013784;28;20018;-81
2023/01/24 07:58:34;;;;;;;29.02;12.75;;;;;;;;;;5012147;28;20061;-78
2023/01/24 08:01:20;;;;;;;24.25;11.50;;;;;;;;;;5011640;28;20014;-78
2023/01/24 08:04:06;;;;;;;24.58;11.32;;;;;;;;;;4996784;28;20018;-79
2023/01/24 08:09:56;;;;;;;25.83;10.43;;;;;;;;;;5003842;28;20137;-82
2023/01/24 08:12:41;;;;;;;23.73;10.63;;;;;;;;;;4998917;28;20086;-81
2023/01/24 08:15:30;;;;;;;29.25;11.60;;;;;;;;;;4985300;28;20022;-81
2023/01/24 08:18:18;;;;;;;23.17;10.77;;;;;;;;;;4999069;28;20321;-82
2023/01/24 08:21:04;;;;;;;24.55;11.02;;;;;;;;;;4996681;28;20026;-80
2023/01/24 08:23:49;;;;;;;23.75;10.82;;;;;;;;;;4997793;28;20022;-81
2023/01/24 08:26:35;;;;;;;22.50;10.00;;;;;;;;;;4984464;28;20014;-82
2023/01/24 08:29:21;;;;;;;20.90;10.25;;;;;;;;;;4982784;28;20459;-82
2023/01/24 08:32:06;;;;;;;21.10;10.63;;;;;;;;;;4996687;28;20023;-81
2023/01/24 08:34:52;;;;;;;25.25;11.25;;;;;;;;;;4981901;28;20022;-81
2023/01/24 08:37:37;;;;;;;20.20;10.25;;;;;;;;;;4996399;28;20026;-80
2023/01/24 08:40:23;;;;;;;24.17;11.63;;;;;;;;;;4996369;28;20064;-81
2023/01/24 08:43:09;;;;;;;21.67;10.13;;;;;;;;;;4995740;28;20463;-80
2023/01/24 08:45:55;;;;;;;24.23;11.35;;;;;;;;;;4995605;28;20022;-80
2023/01/24 08:48:40;;;;;;;23.40;11.27;;;;;;;;;;4982242;28;20451;-80
2023/01/24 08:51:29;;;;;;;26.92;10.80;;;;;;;;;;4981812;28;20022;-81
2023/01/24 08:54:15;;;;;;;25.17;11.30;;;;;;;;;;4985702;28;20019;-81
2023/01/24 08:57:01;;;;;;;23.92;10.70;;;;;;;;;;4987142;28;20450;-79
2023/01/24 08:59:47;;;;;;;24.92;12.73;;;;;;;;;;5001039;28;20026;-80
2023/01/24 09:02:36;;;;;;;28.02;11.82;;;;;;;;;;5002185;28;20022;-80
2023/01/24 09:05:22;;;;;;;25.27;11.75;;;;;;;;;;4985661;28;20341;-80
2023/01/24 09:08:07;;;;;;;26.63;11.48;;;;;;;;;;4999610;28;20030;-81
2023/01/24 09:10:53;;;;;;;30.48;13.93;;;;;;;;;;4999119;28;20050;-80
2023/01/24 09:13:39;;;;;;;26.80;11.13;;;;;;;;;;4986555;28;20105;-80
2023/01/24 09:16:27;;;;;;;22.90;11.23;;;;;;;;;;4985995;28;20034;-80
2023/01/24 09:19:12;;;;;;;20.50;9.50;;;;;;;;;;4986207;28;20022;-80
2023/01/24 09:21:58;;;;;;;21.30;10.73;;;;;;;;;;4999963;28;20347;-81
2023/01/24 09:24:43;;;;;;;25.75;10.93;;;;;;;;;;4985477;28;20022;-80
2023/01/24 09:27:29;;;;;;;20.08;9.73;;;;;;;;;;4985122;28;20036;-80
2023/01/24 09:30:17;;;;;;;20.40;9.48;;;;;;;;;;4999226;28;20030;-80
2023/01/24 09:33:04;;;;;;;23.33;11.57;;;;;;;;;;4984858;28;20023;-80
2023/01/24 09:35:57;;;;;;;28.67;10.75;;;;;;;;;;4978639;28;20050;-80
2023/01/24 09:38:42;;;;;;;23.27;9.90;;;;;;;;;;4978330;28;20054;-80
2023/01/24 09:41:43;;;;;;;23.45;10.43;;;;;;;;;;4980193;28;20019;-81
2023/01/24 09:44:35;;;;;;;19.92;9.35;;;;;;;;;;4979588;28;20030;-81
2023/01/24 09:47:23;;;;;;;17.30;7.72;;;;;;;;;;4980290;28;20066;-80
2023/01/24 09:50:19;;;;;;;18.05;7.80;;;;;;;;;;4978917;28;20037;-80
2023/01/24 09:53:37;;;;;;;17.95;8.07;;;;;;;;;;4978294;28;20023;-80
2023/01/24 09:56:42;;;;;;;15.50;8.48;;;;;;;;;;4948188;28;20459;-78
2023/01/24 09:59:34;;;;;;;23.58;8.57;;;;;;;;;;4978638;28;20051;-79
2023/01/24 10:02:21;;;;;;;15.50;7.85;;;;;;;;;;4977453;28;20022;-79
2023/01/24 10:05:11;;;;;;;18.17;8.25;;;;;;;;;;4977540;28;20018;-78
2023/01/24 10:08:00;;;;;;;18.67;7.82;;;;;;;;;;4980875;28;20036;-79
2023/01/24 10:10:58;;;;;;;14.88;7.30;;;;;;;;;;4977419;28;20031;-79
2023/01/24 10:13:53;;;;;;;18.70;8.65;;;;;;;;;;4977443;28;20026;-79
2023/01/24 10:16:51;;;;;;;17.90;8.45;;;;;;;;;;4979331;28;20128;-80
2023/01/24 10:19:45;;;;;;;14.18;7.65;;;;;;;;;;4977307;28;20026;-79
2023/01/24 10:22:36;;;;;;;17.70;6.85;;;;;;;;;;4977336;28;20023;-79
2023/01/24 10:25:24;;;;;;;11.98;6.82;;;;;;;;;;4976985;28;20038;-79
2023/01/24 10:28:15;;;;;;;18.48;7.03;;;;;;;;;;4977828;28;20070;-79
2023/01/24 10:31:07;;;;;;;13.13;6.28;;;;;;;;;;4977927;28;20022;-79
2023/01/24 10:33:57;;;;;;;12.88;6.35;;;;;;;;;;4978195;28;20114;-79
2023/01/24 10:37:02;;;;;;;14.10;7.60;;;;;;;;;;4977717;28;20093;-78
2023/01/24 10:39:48;;;;;;;13.98;6.65;;;;;;;;;;4977239;28;20046;-80
2023/01/24 10:42:33;;;;;;;13.65;6.63;;;;;;;;;;4979304;28;20030;-79
2023/01/24 10:45:32;;;;;;;17.13;7.20;;;;;;;;;;4976875;28;20030;-79
2023/01/24 10:48:23;;;;;;;16.67;7.10;;;;;;;;;;4979121;28;20019;-80
2023/01/24 10:51:11;;;;;;;13.68;6.85;;;;;;;;;;4977969;28;20031;-80
2023/01/24 10:54:01;;;;;;;14.52;7.38;;;;;;;;;;4979033;28;20563;-80
2023/01/24 10:56:46;;;;;;;16.17;7.60;;;;;;;;;;4977479;28;20056;-79
2023/01/24 10:59:32;;;;;;;15.50;7.05;;;;;;;;;;4978087;28;20471;-79
2023/01/24 11:02:22;;;;;;;18.25;8.43;;;;;;;;;;4977740;28;20031;-79
2023/01/24 11:05:11;;;;;;;16.55;7.47;;;;;;;;;;4977588;28;20082;-79
2023/01/24 11:08:00;;;;;;;17.17;7.15;;;;;;;;;;4977508;28;20443;-80
2023/01/24 11:10:46;;;;;;;14.70;7.18;;;;;;;;;;4978173;28;20026;-80
2023/01/24 11:13:36;;;;;;;14.40;6.90;;;;;;;;;;4977377;28;20027;-79
2023/01/24 11:16:24;;;;;;;13.80;7.28;;;;;;;;;;4976965;28;20035;-79
2023/01/24 11:19:32;;;;;;;17.63;7.85;;;;;;;;;;4976750;28;20039;-80
2023/01/24 11:22:22;;;;;;;19.00;8.27;;;;;;;;;;4975770;28;20436;-80
2023/01/24 11:25:13;;;;;;;17.73;8.35;;;;;;;;;;4977833;28;20027;-80
2023/01/24 11:28:00;;;;;;;13.85;7.05;;;;;;;;;;4976712;28;20026;-80
2023/01/24 11:30:46;;;;;;;16.30;7.40;;;;;;;;;;4977280;28;20397;-81
2023/01/24 11:33:34;;;;;;;16.58;7.00;;;;;;;;;;4976751;28;20086;-81
2023/01/24 11:36:19;;;;;;;12.98;6.63;;;;;;;;;;4991265;28;20047;-79
2023/01/24 11:39:16;;;;;;;12.77;6.78;;;;;;;;;;4996390;28;20037;-74
2023/01/24 11:42:22;;;;;;;11.10;6.40;;;;;;;;;;4995114;28;20026;-72
2023/01/24 11:45:08;;;;;;;15.10;6.15;;;;;;;;;;4995795;28;20018;-79
2023/01/24 11:47:59;;;;;;;13.38;5.93;;;;;;;;;;4994788;28;20030;-78
2023/01/24 11:50:44;;;;;;;16.55;7.22;;;;;;;;;;4981362;28;20022;-79
2023/01/24 11:53:33;;;;;;;10.88;5.90;;;;;;;;;;4981841;28;20030;-78
2023/01/24 11:56:20;;;;;;;15.30;6.65;;;;;;;;;;4981423;28;20029;-76
2023/01/24 11:59:29;;;;;;;13.05;6.40;;;;;;;;;;4981739;28;20026;-80
2023/01/24 12:02:18;;;;;;;10.70;5.65;;;;;;;;;;4981224;28;20466;-78
2023/01/24 12:05:14;;;;;;;11.00;5.15;;;;;;;;;;4996529;28;20531;-76
2023/01/24 12:08:27;;;;;;;7.80;4.75;;;;;;;;;;4982429;28;20061;-77
2023/01/24 12:11:19;;;;;;;8.15;4.70;;;;;;;;;;4995835;28;20509;-78
2023/01/24 12:14:23;;;;;;;8.30;4.20;;;;;;;;;;4981783;28;20026;-78
2023/01/24 12:17:18;;;;;;;10.63;5.20;;;;;;;;;;4995626;28;20133;-78
2023/01/24 12:20:22;;;;;;;12.05;4.60;;;;;;;;;;4996801;28;20023;-77
2023/01/24 12:23:24;;;;;;;10.82;5.75;;;;;;;;;;4995586;28;20029;-78
2023/01/24 12:26:29;;;;;;;10.48;5.50;;;;;;;;;;4995922;28;20023;-78
2023/01/24 12:29:23;;;;;;;11.07;4.97;;;;;;;;;;4999943;28;20019;-78
2023/01/24 12:32:19;;;;;;;9.77;4.65;;;;;;;;;;4999117;28;20027;-78
2023/01/24 12:35:05;;;;;;;11.23;4.82;;;;;;;;;;4986133;28;20117;-77
2023/01/24 12:37:50;;;;;;;11.00;5.03;;;;;;;;;;4984673;28;20111;-77
2023/01/24 12:40:58;;;;;;;11.82;5.72;;;;;;;;;;4999408;28;20018;-78
2023/01/24 12:43:44;;;;;;;9.50;5.15;;;;;;;;;;4985095;28;20049;-77
2023/01/24 12:46:30;;;;;;;8.50;4.75;;;;;;;;;;4999904;28;20439;-77
2023/01/24 12:49:30;;;;;;;12.95;7.28;;;;;;;;;;4999024;28;20113;-75
2023/01/24 12:52:22;;;;;;;9.38;4.82;;;;;;;;;;4984717;28;20367;-77
2023/01/24 12:55:19;;;;;;;10.77;5.35;;;;;;;;;;4999518;28;20065;-77
2023/01/24 12:58:20;;;;;;;19.40;9.63;;;;;;;;;;4998224;28;20030;-76
2023/01/24 13:01:06;;;;;;;13.52;4.93;;;;;;;;;;4998582;28;20026;-76
2023/01/24 13:04:06;;;;;;;12.75;6.10;;;;;;;;;;4984495;28;20030;-77
2023/01/24 13:06:58;;;;;;;10.52;5.05;;;;;;;;;;4984899;28;20030;-77
2023/01/24 13:09:44;;;;;;;11.07;5.25;;;;;;;;;;4998959;28;20023;-77
2023/01/24 13:12:31;;;;;;;9.45;4.72;;;;;;;;;;4984410;28;20011;-78
2023/01/24 13:15:34;;;;;;;10.98;5.75;;;;;;;;;;4984997;28;20022;-77
2023/01/24 13:18:20;;;;;;;15.45;4.93;;;;;;;;;;4983291;28;20022;-77
2023/01/24 13:21:10;;;;;;;9.57;4.63;;;;;;;;;;4999139;28;20077;-78
2023/01/24 13:23:56;;;;;;;14.10;4.68;;;;;;;;;;4985851;28;20031;-79
2023/01/24 13:26:45;;;;;;;7.93;4.55;;;;;;;;;;5000546;28;20015;-77
2023/01/24 13:29:43;;;;;;;7.40;4.50;;;;;;;;;;5002142;28;20090;-76
2023/01/24 13:32:30;;;;;;;12.13;5.25;;;;;;;;;;5004618;28;20018;-78
2023/01/24 13:35:20;;;;;;;10.60;5.15;;;;;;;;;;5007253;28;20057;-77
2023/01/24 13:38:16;;;;;;;9.43;4.30;;;;;;;;;;4986244;28;20043;-78
2023/01/24 13:41:06;;;;;;;12.23;5.07;;;;;;;;;;4984370;28;20022;-78
2023/01/24 13:43:59;;;;;;;7.25;4.22;;;;;;;;;;4984588;28;20535;-77
2023/01/24 13:46:45;;;;;;;12.02;6.03;;;;;;;;;;4998639;28;20033;-78
2023/01/24 13:49:32;;;;;;;10.43;6.03;;;;;;;;;;4999155;28;20018;-78
2023/01/24 13:52:33;;;;;;;9.65;4.53;;;;;;;;;;4984778;28;20375;-78
2023/01/24 13:55:19;;;;;;;7.13;4.00;;;;;;;;;;4999430;28;20022;-77
2023/01/24 13:58:08;;;;;;;9.68;4.15;;;;;;;;;;4984322;28;20109;-77
2023/01/24 14:00:56;;;;;;;7.28;4.00;;;;;;;;;;4983472;28;20018;-77
2023/01/24 14:03:51;;;;;;;7.85;3.92;;;;;;;;;;4985090;28;20018;-77
2023/01/24 14:06:42;;;;;;;11.52;4.10;;;;;;;;;;4984414;28;20018;-78
2023/01/24 14:09:28;;;;;;;7.90;4.20;;;;;;;;;;5012469;28;20026;-76
2023/01/24 14:12:18;;;;;;;5.90;3.47;;;;;;;;;;4990288;28;20472;-78
2023/01/24 14:15:05;;;;;;;6.97;3.88;;;;;;;;;;4983851;28;20018;-77
2023/01/24 14:17:51;;;;;;;7.13;3.33;;;;;;;;;;4996466;28;20085;-78
2023/01/24 14:20:43;;;;;;;6.38;3.80;;;;;;;;;;4997224;28;20023;-78
2023/01/24 14:23:30;;;;;;;8.40;4.05;;;;;;;;;;4996708;28;20023;-78
2023/01/24 14:26:18;;;;;;;8.10;3.97;;;;;;;;;;4996653;28;20114;-78
2023/01/24 14:29:12;;;;;;;8.00;4.13;;;;;;;;;;4983522;28;20022;-78
2023/01/24 14:32:00;;;;;;;8.30;3.83;;;;;;;;;;4997209;28;20022;-79
2023/01/24 14:34:48;;;;;;;9.43;3.90;;;;;;;;;;4997401;28;20172;-80
2023/01/24 14:37:35;;;;;;;7.57;4.07;;;;;;;;;;4996925;28;20470;-79
2023/01/24 14:40:25;;;;;;;8.88;4.07;;;;;;;;;;4997485;28;20419;-79
2023/01/24 14:43:11;;;;;;;12.90;4.72;;;;;;;;;;4997133;28;20410;-80
2023/01/24 14:45:57;;;;;;;9.35;5.00;;;;;;;;;;4995854;28;20411;-79
2023/01/24 14:48:42;;;;;;;8.18;4.25;;;;;;;;;;4995797;28;20031;-78
2023/01/24 14:51:28;;;;;;;12.13;6.80;;;;;;;;;;4995864;28;20068;-79
2023/01/24 14:54:21;;;;;;;11.02;5.55;;;;;;;;;;4982327;28;20088;-78
2023/01/24 14:57:18;;;;;;;9.27;5.32;;;;;;;;;;4983181;28;20066;-78
2023/01/24 15:00:12;;;;;;;13.30;6.10;;;;;;;;;;4995753;28;20392;-78
2023/01/24 15:03:01;;;;;;;11.98;6.25;;;;;;;;;;4981851;28;20022;-78
2023/01/24 15:06:06;;;;;;;10.77;5.70;;;;;;;;;;4996146;28;20343;-78
2023/01/24 15:08:58;;;;;;;11.88;6.20;;;;;;;;;;4982742;28;20022;-78
2023/01/24 15:11:45;;;;;;;11.35;6.00;;;;;;;;;;4982942;28;20031;-78
2023/01/24 15:14:30;;;;;;;11.23;6.13;;;;;;;;;;4982083;28;20022;-78
2023/01/24 15:17:26;;;;;;;12.40;6.63;;;;;;;;;;4996575;28;20053;-75
2023/01/24 15:20:22;;;;;;;9.57;6.07;;;;;;;;;;4996635;28;20411;-74
2023/01/24 15:23:18;;;;;;;13.98;6.55;;;;;;;;;;4996077;28;20014;-74
2023/01/24 15:26:22;;;;;;;10.45;5.53;;;;;;;;;;4982587;28;20022;-76
2023/01/24 15:29:27;;;;;;;10.48;4.75;;;;;;;;;;4995530;28;20022;-75
2023/01/24 15:32:35;;;;;;;9.35;3.83;;;;;;;;;;4996222;28;20463;-76
2023/01/24 15:35:21;;;;;;;8.95;3.97;;;;;;;;;;4969406;28;20050;-75
2023/01/24 15:38:16;;;;;;;7.53;3.85;;;;;;;;;;4981081;28;20037;-74
2023/01/24 15:41:01;;;;;;;7.68;4.30;;;;;;;;;;4996054;28;20049;-72
2023/01/24 15:43:47;;;;;;;10.82;5.13;;;;;;;;;;4995796;28;20466;-75
2023/01/24 15:49:58;;;;;;;9.95;5.22;;;;;;;;;;4995685;28;20030;-74
2023/01/24 15:52:44;;;;;;;8.85;5.07;;;;;;;;;;4982345;28;20019;-74
2023/01/24 15:55:29;;;;;;;9.90;5.40;;;;;;;;;;4981435;28;20503;-76
2023/01/24 15:58:15;;;;;;;11.30;5.43;;;;;;;;;;4994363;28;20026;-74
2023/01/24 16:01:01;;;;;;;9.93;6.18;;;;;;;;;;4980826;28;20022;-76
2023/01/24 16:03:47;;;;;;;9.60;5.88;;;;;;;;;;4995036;28;20028;-74
2023/01/24 16:06:32;;;;;;;14.05;6.05;;;;;;;;;;4995613;28;20069;-74
2023/01/24 16:09:18;;;;;;;12.55;5.35;;;;;;;;;;4996674;28;20026;-74
2023/01/24 16:12:04;;;;;;;11.18;6.35;;;;;;;;;;4995897;28;20359;-75
2023/01/24 16:14:51;;;;;;;13.02;6.78;;;;;;;;;;4980248;28;20451;-74
2023/01/24 16:17:36;;;;;;;11.85;6.75;;;;;;;;;;4981852;28;20106;-74
2023/01/24 16:20:23;;;;;;;14.20;7.60;;;;;;;;;;4980520;28;20034;-75
2023/01/24 16:23:09;;;;;;;14.57;7.90;;;;;;;;;;4995726;28;20037;-76
2023/01/24 16:25:55;;;;;;;20.92;9.82;;;;;;;;;;4981642;28;20348;-75
2023/01/24 16:28:41;;;;;;;16.50;8.02;;;;;;;;;;4980626;28;20092;-74
2023/01/24 16:31:26;;;;;;;14.50;8.05;;;;;;;;;;4994878;28;20072;-75
2023/01/24 16:34:12;;;;;;;17.55;7.75;;;;;;;;;;4995138;28;20130;-76
2023/01/24 16:36:58;;;;;;;14.00;8.15;;;;;;;;;;4980518;28;20360;-76
2023/01/24 16:39:44;;;;;;;19.35;8.13;;;;;;;;;;4995208;28;20018;-76
2023/01/24 16:42:29;;;;;;;16.40;8.95;;;;;;;;;;4994727;28;20015;-75
2023/01/24 16:45:16;;;;;;;17.85;8.38;;;;;;;;;;4981771;28;20053;-76
2023/01/24 16:48:03;;;;;;;17.15;8.20;;;;;;;;;;4982580;28;20038;-76
2023/01/24 16:50:49;;;;;;;18.30;8.32;;;;;;;;;;4980699;28;20038;-75
2023/01/24 16:53:34;;;;;;;15.68;8.70;;;;;;;;;;4994546;28;20121;-74
2023/01/24 16:56:20;;;;;;;15.63;8.43;;;;;;;;;;4994577;28;20033;-77
2023/01/24 16:59:06;;;;;;;14.05;7.75;;;;;;;;;;4994613;28;20117;-75
2023/01/24 17:01:51;;;;;;;15.60;8.27;;;;;;;;;;4994805;28;20010;-74
2023/01/24 17:04:37;;;;;;;29.13;13.88;;;;;;;;;;4994497;28;20101;-76
2023/01/24 17:07:23;;;;;;;17.95;9.05;;;;;;;;;;4994522;28;20352;-75
2023/01/24 17:10:09;;;;;;;17.35;8.93;;;;;;;;;;4980810;28;20500;-77
2023/01/24 17:12:55;;;;;;;24.13;11.43;;;;;;;;;;4980324;28;20034;-73
2023/01/24 17:15:41;;;;;;;18.10;9.15;;;;;;;;;;4997431;28;20411;-73